Time;durP1;ratioP1;P1;durP2;ratioP2;P2;SDS_P1;SDS_P2;PMS_P1;PMS_P2;Temp;Humidity;BMP_temperature;BMP_pressure;BME280_temperature;BME280_humidity;BME280_pressure;Samples;Min_cycle;Max_cycle;Signal;HPM_P1;HPM_P2
2024/03/08 00:00:33;;;;;;;20.20;14.83;;;5.80;99.90;;;;;;5050313;28;20540;-82
2024/03/08 00:03:04;;;;;;;17.90;14.10;;;5.90;99.90;;;;;;5048758;28;20443;-81
2024/03/08 00:05:33;;;;;;;19.10;14.57;;;5.90;99.90;;;;;;5045225;28;20447;-81
2024/03/08 00:08:01;;;;;;;22.50;16.03;;;5.80;99.90;;;;;;5048759;28;20479;-81
2024/03/08 00:10:29;;;;;;;20.30;15.77;;;5.80;99.90;;;;;;5044891;28;20616;-79
2024/03/08 00:12:58;;;;;;;20.53;15.43;;;5.80;99.90;;;;;;5046889;28;20471;-79
2024/03/08 00:15:29;;;;;;;21.67;16.03;;;5.80;99.90;;;;;;5045160;28;20471;-78
2024/03/08 00:17:57;;;;;;;20.00;14.50;;;5.70;99.90;;;;;;5046728;28;20512;-81
2024/03/08 00:20:27;;;;;;;21.10;15.53;;;5.80;99.90;;;;;;5048365;28;20485;-81
2024/03/08 00:22:57;;;;;;;17.10;14.53;;;5.80;99.90;;;;;;5046220;28;20449;-81
2024/03/08 00:25:26;;;;;;;21.77;14.40;;;5.70;99.90;;;;;;5048719;28;20508;-81
2024/03/08 00:27:55;;;;;;;25.30;17.10;;;5.70;99.90;;;;;;5048011;28;20839;-80
2024/03/08 00:30:25;;;;;;;19.47;14.57;;;5.70;99.90;;;;;;5049620;28;20451;-82
2024/03/08 00:32:53;;;;;;;18.53;14.73;;;5.70;99.90;;;;;;5048995;28;20475;-80
2024/03/08 00:35:22;;;;;;;20.20;15.00;;;5.60;99.90;;;;;;5045551;28;20906;-79
2024/03/08 00:37:51;;;;;;;18.60;15.50;;;5.60;99.90;;;;;;5043181;28;20477;-79
2024/03/08 00:40:19;;;;;;;16.90;13.40;;;5.60;99.90;;;;;;5042201;28;20513;-80
2024/03/08 00:42:47;;;;;;;19.73;16.00;;;5.50;99.90;;;;;;5040274;28;20460;-82
2024/03/08 00:45:15;;;;;;;17.60;13.13;;;5.60;99.90;;;;;;5043062;28;20495;-81
2024/03/08 00:47:44;;;;;;;18.93;14.40;;;5.50;99.90;;;;;;5040066;28;20469;-80
2024/03/08 00:50:13;;;;;;;23.00;15.47;;;5.50;99.90;;;;;;5044052;28;20538;-80
2024/03/08 00:52:41;;;;;;;20.93;15.10;;;5.40;99.90;;;;;;5046068;28;20868;-81
2024/03/08 00:55:14;;;;;;;20.00;13.50;;;5.50;99.90;;;;;;5041471;28;20520;-81
2024/03/08 00:57:42;;;;;;;19.77;15.13;;;5.50;99.90;;;;;;5041740;28;20503;-80
2024/03/08 01:00:12;;;;;;;23.70;15.63;;;5.50;99.90;;;;;;5046678;28;20950;-79
2024/03/08 01:02:41;;;;;;;18.70;13.40;;;5.40;99.90;;;;;;5056388;28;20819;-79
2024/03/08 01:05:09;;;;;;;18.50;14.37;;;5.50;99.90;;;;;;5044632;28;20958;-79
2024/03/08 01:07:38;;;;;;;18.07;14.00;;;5.40;99.90;;;;;;5045267;28;21027;-81
2024/03/08 01:10:09;;;;;;;20.67;15.50;;;5.40;99.90;;;;;;5044241;28;20559;-79
2024/03/08 01:12:39;;;;;;;18.73;14.20;;;5.30;99.90;;;;;;5038757;28;21055;-82
2024/03/08 01:15:08;;;;;;;17.60;13.47;;;5.30;99.90;;;;;;5036600;28;20463;-79
2024/03/08 01:17:37;;;;;;;17.27;13.70;;;5.40;99.90;;;;;;5040041;28;20503;-80
2024/03/08 01:20:07;;;;;;;17.00;15.20;;;5.30;99.90;;;;;;5041551;28;20468;-79
2024/03/08 01:22:35;;;;;;;16.07;13.37;;;5.20;99.90;;;;;;5040832;28;20444;-80
2024/03/08 01:25:04;;;;;;;18.17;13.53;;;5.20;99.90;;;;;;5040687;28;20457;-78
2024/03/08 01:27:34;;;;;;;20.90;14.40;;;5.20;99.90;;;;;;5039145;28;20481;-79
2024/03/08 01:30:04;;;;;;;19.33;12.73;;;5.20;99.90;;;;;;5039235;28;20458;-78
2024/03/08 01:32:33;;;;;;;20.03;14.90;;;5.20;99.90;;;;;;5038631;28;20453;-81
2024/03/08 01:35:02;;;;;;;24.43;15.27;;;5.10;99.90;;;;;;5046868;28;20475;-80
2024/03/08 01:37:31;;;;;;;17.90;13.87;;;5.10;99.90;;;;;;5049369;28;20472;-81
2024/03/08 01:40:00;;;;;;;18.63;13.67;;;5.10;99.90;;;;;;5041425;28;20539;-81
2024/03/08 01:42:28;;;;;;;22.83;15.70;;;5.20;99.90;;;;;;5044809;28;20464;-81
2024/03/08 01:44:57;;;;;;;19.50;15.13;;;5.20;99.90;;;;;;5042641;28;20458;-84
2024/03/08 01:47:26;;;;;;;20.77;14.40;;;5.00;99.90;;;;;;5044497;28;21056;-81
2024/03/08 01:49:55;;;;;;;17.43;14.17;;;5.10;99.90;;;;;;5041034;28;20471;-81
2024/03/08 01:52:25;;;;;;;17.33;13.77;;;5.10;99.90;;;;;;5041533;28;20439;-79
2024/03/08 01:54:53;;;;;;;19.13;14.20;;;5.10;99.90;;;;;;5039511;28;20474;-79
2024/03/08 01:57:22;;;;;;;21.80;14.73;;;5.10;99.90;;;;;;5041101;28;20533;-80
2024/03/08 01:59:54;;;;;;;19.93;13.93;;;5.10;99.90;;;;;;5040567;28;20467;-79
2024/03/08 02:02:23;;;;;;;20.67;14.60;;;5.10;99.90;;;;;;5039945;28;20479;-79
2024/03/08 02:04:53;;;;;;;20.73;14.70;;;5.00;99.90;;;;;;5041514;28;20454;-80
2024/03/08 02:07:22;;;;;;;20.00;14.87;;;5.00;99.90;;;;;;5041757;28;20470;-80
2024/03/08 02:09:51;;;;;;;19.93;15.80;;;4.90;99.90;;;;;;5041181;28;20954;-80
2024/03/08 02:12:21;;;;;;;17.57;13.37;;;5.00;99.90;;;;;;5039507;28;20449;-81
2024/03/08 02:14:49;;;;;;;24.10;14.83;;;5.00;99.90;;;;;;5040027;28;20448;-79
2024/03/08 02:17:18;;;;;;;20.00;14.67;;;4.80;99.90;;;;;;5038330;28;20476;-77
2024/03/08 02:19:46;;;;;;;17.73;13.60;;;4.80;99.90;;;;;;5035861;28;20973;-79
2024/03/08 02:22:16;;;;;;;19.77;13.30;;;4.90;99.90;;;;;;5041452;28;20456;-79
2024/03/08 02:24:45;;;;;;;20.80;13.50;;;4.90;99.90;;;;;;5038046;28;20444;-77
2024/03/08 02:27:14;;;;;;;18.77;15.60;;;4.80;99.90;;;;;;5041326;28;20476;-79
2024/03/08 02:29:45;;;;;;;16.40;14.33;;;4.80;99.90;;;;;;5038310;28;20452;-80
2024/03/08 02:32:13;;;;;;;16.93;14.20;;;4.70;99.90;;;;;;5046281;28;20490;-79
2024/03/08 02:34:41;;;;;;;16.70;13.97;;;4.80;99.90;;;;;;5042439;28;20471;-79
2024/03/08 02:37:09;;;;;;;18.37;14.73;;;4.70;99.90;;;;;;5039585;28;20464;-80
2024/03/08 02:39:39;;;;;;;17.53;14.40;;;4.80;99.90;;;;;;5038165;28;20455;-78
2024/03/08 02:42:08;;;;;;;20.67;13.73;;;4.70;99.90;;;;;;5043973;28;20465;-79
2024/03/08 02:44:37;;;;;;;16.20;13.05;;;4.70;99.90;;;;;;5042333;28;21634;-78
2024/03/08 02:47:05;;;;;;;17.27;12.97;;;4.70;99.90;;;;;;5039574;28;20287;-77
2024/03/08 02:49:33;;;;;;;18.23;13.57;;;4.70;99.90;;;;;;5040762;28;20461;-79
2024/03/08 02:52:02;;;;;;;18.67;14.07;;;4.70;99.90;;;;;;5041557;28;20462;-77
2024/03/08 02:54:30;;;;;;;19.10;13.60;;;4.70;99.90;;;;;;5043195;28;20490;-79
2024/03/08 02:56:59;;;;;;;17.40;13.47;;;4.70;99.90;;;;;;5041872;28;20510;-78
2024/03/08 02:59:29;;;;;;;16.23;12.53;;;4.60;99.90;;;;;;5042388;28;20464;-81
2024/03/08 03:01:57;;;;;;;18.13;13.40;;;4.70;99.90;;;;;;5054764;28;20482;-80
2024/03/08 03:04:25;;;;;;;19.43;13.53;;;4.60;99.90;;;;;;5042431;28;20444;-80
2024/03/08 03:06:54;;;;;;;19.30;13.07;;;4.50;99.90;;;;;;5044889;28;20960;-82
2024/03/08 03:09:27;;;;;;;14.80;13.20;;;4.60;99.90;;;;;;5046691;28;20456;-79
2024/03/08 03:11:55;;;;;;;16.60;13.13;;;4.60;99.90;;;;;;5043638;28;20455;-79
2024/03/08 03:14:26;;;;;;;18.20;12.23;;;4.50;99.90;;;;;;5046705;28;20977;-81
2024/03/08 03:16:55;;;;;;;16.30;12.13;;;4.60;99.90;;;;;;5046802;28;20483;-80
2024/03/08 03:19:23;;;;;;;13.30;11.67;;;4.60;99.90;;;;;;5047079;28;21229;-81
2024/03/08 03:21:52;;;;;;;14.70;13.00;;;4.50;99.90;;;;;;5042423;28;21129;-81
2024/03/08 03:24:21;;;;;;;19.20;14.00;;;4.50;99.90;;;;;;5048419;28;20535;-80
2024/03/08 03:26:49;;;;;;;16.90;12.30;;;4.50;99.90;;;;;;5046811;28;20874;-80
2024/03/08 03:29:18;;;;;;;19.60;13.13;;;4.60;99.90;;;;;;5043503;28;20490;-80
2024/03/08 03:31:47;;;;;;;16.77;12.20;;;4.60;99.90;;;;;;5044673;28;20436;-84
2024/03/08 03:34:16;;;;;;;14.17;11.17;;;4.60;99.90;;;;;;5045044;28;20452;-81
2024/03/08 03:36:47;;;;;;;18.80;12.83;;;4.40;99.90;;;;;;5044876;28;20533;-81
2024/03/08 03:39:16;;;;;;;16.10;12.10;;;4.30;99.90;;;;;;5042268;28;20521;-79
2024/03/08 03:41:46;;;;;;;16.40;12.33;;;4.30;99.90;;;;;;5047990;28;20562;-82
2024/03/08 03:44:14;;;;;;;15.60;11.90;;;4.40;99.90;;;;;;5057094;28;20462;-78
2024/03/08 03:46:45;;;;;;;17.70;13.00;;;4.40;99.90;;;;;;5044384;28;20457;-80
2024/03/08 03:49:14;;;;;;;18.07;12.80;;;4.30;99.90;;;;;;5041703;28;20452;-78
2024/03/08 03:51:44;;;;;;;19.53;12.37;;;4.20;99.90;;;;;;5041245;28;20499;-81
2024/03/08 03:54:13;;;;;;;17.52;12.68;;;4.30;99.90;;;;;;5038068;28;20523;-78
2024/03/08 03:56:41;;;;;;;16.37;12.90;;;4.30;99.90;;;;;;5040920;28;20749;-78
2024/03/08 03:59:09;;;;;;;17.77;10.93;;;4.30;99.90;;;;;;5043724;28;21096;-80
2024/03/08 04:01:42;;;;;;;14.50;11.90;;;4.40;99.90;;;;;;5041921;28;20512;-80
2024/03/08 04:04:12;;;;;;;14.57;11.57;;;4.30;99.90;;;;;;5043802;28;21236;-81
2024/03/08 04:06:42;;;;;;;16.80;12.03;;;4.20;99.90;;;;;;5044438;28;20452;-79
2024/03/08 04:09:11;;;;;;;18.63;13.00;;;4.20;99.90;;;;;;5046018;28;20503;-82
2024/03/08 04:11:39;;;;;;;16.03;12.80;;;4.20;99.90;;;;;;5047396;28;20455;-83
2024/03/08 04:14:07;;;;;;;17.03;12.80;;;4.10;99.90;;;;;;5049449;28;20821;-81
2024/03/08 04:16:36;;;;;;;19.10;13.33;;;4.10;99.90;;;;;;5048154;28;20996;-80
2024/03/08 04:19:04;;;;;;;18.10;12.20;;;4.10;99.90;;;;;;5059677;28;20480;-82
2024/03/08 04:21:32;;;;;;;17.50;13.37;;;4.10;99.90;;;;;;5045734;28;20447;-82
2024/03/08 04:24:02;;;;;;;16.30;13.33;;;4.10;99.90;;;;;;5043187;28;20479;-82
2024/03/08 04:26:31;;;;;;;15.90;12.57;;;4.10;99.90;;;;;;5045351;28;20440;-80
2024/03/08 04:28:59;;;;;;;15.20;12.00;;;4.10;99.90;;;;;;5047856;28;20490;-82
2024/03/08 04:31:27;;;;;;;19.30;13.10;;;4.00;99.90;;;;;;5042349;28;20455;-82
2024/03/08 04:33:55;;;;;;;17.27;13.07;;;4.10;99.90;;;;;;5048728;28;20543;-80
2024/03/08 04:36:25;;;;;;;16.77;12.95;;;4.00;99.90;;;;;;5048182;28;20511;-81
2024/03/08 04:38:53;;;;;;;18.13;12.93;;;3.90;99.90;;;;;;5044456;28;20220;-82
2024/03/08 04:41:23;;;;;;;16.83;13.40;;;4.00;99.90;;;;;;5043094;28;21067;-82
2024/03/08 04:43:51;;;;;;;16.77;12.33;;;3.90;99.90;;;;;;5041443;28;20466;-80
2024/03/08 04:46:20;;;;;;;20.23;13.17;;;3.90;99.90;;;;;;5046017;28;20673;-82
2024/03/08 04:48:48;;;;;;;19.43;13.30;;;3.90;99.90;;;;;;5046071;28;20533;-82
2024/03/08 04:51:17;;;;;;;17.50;12.33;;;4.00;99.90;;;;;;5045959;28;20460;-81
2024/03/08 04:53:45;;;;;;;17.70;13.10;;;3.90;99.90;;;;;;5044169;28;20448;-80
2024/03/08 04:56:13;;;;;;;15.17;12.07;;;4.00;99.90;;;;;;5041683;28;21169;-82
2024/03/08 04:58:43;;;;;;;17.57;12.20;;;4.00;99.90;;;;;;5044191;28;20518;-81
2024/03/08 05:01:11;;;;;;;16.53;13.00;;;4.00;99.90;;;;;;5040347;28;20539;-80
2024/03/08 05:03:40;;;;;;;17.50;11.90;;;3.90;99.90;;;;;;5040159;28;20460;-82
2024/03/08 05:06:08;;;;;;;23.33;16.47;;;3.90;99.90;;;;;;5044719;28;20448;-82
2024/03/08 05:08:36;;;;;;;16.43;12.87;;;3.60;99.90;;;;;;5040281;28;20477;-80
2024/03/08 05:11:06;;;;;;;15.90;12.80;;;3.80;99.90;;;;;;5041247;28;20497;-83
2024/03/08 05:13:35;;;;;;;17.75;12.90;;;3.70;99.90;;;;;;5041238;28;20951;-84
2024/03/08 05:16:07;;;;;;;17.90;12.45;;;3.60;99.90;;;;;;5039414;28;20221;-81
2024/03/08 05:18:36;;;;;;;19.30;13.77;;;3.70;99.90;;;;;;5037719;28;20217;-81
2024/03/08 05:21:04;;;;;;;15.80;12.40;;;3.90;99.90;;;;;;5040824;28;20484;-80
2024/03/08 05:23:32;;;;;;;16.83;13.03;;;3.80;99.90;;;;;;5041107;28;20533;-81
2024/03/08 05:26:00;;;;;;;22.33;14.93;;;3.70;99.90;;;;;;5042912;28;20452;-81
2024/03/08 05:28:29;;;;;;;19.00;13.07;;;3.80;99.90;;;;;;5040026;28;20688;-81
2024/03/08 05:30:57;;;;;;;21.30;14.73;;;3.80;99.90;;;;;;5039699;28;20201;-79
2024/03/08 05:33:27;;;;;;;17.42;14.32;;;3.80;99.90;;;;;;5040893;28;20514;-81
2024/03/08 05:35:55;;;;;;;16.30;12.48;;;3.70;99.90;;;;;;5039369;28;20263;-79
2024/03/08 05:38:24;;;;;;;17.40;13.90;;;3.70;99.90;;;;;;5040690;28;20590;-81
2024/03/08 05:40:52;;;;;;;18.58;12.88;;;3.80;99.90;;;;;;5036992;28;20213;-79
2024/03/08 05:43:20;;;;;;;20.23;13.40;;;3.80;99.90;;;;;;5039569;28;21008;-81
2024/03/08 05:45:48;;;;;;;18.50;13.48;;;3.70;99.90;;;;;;5035104;28;20470;-78
2024/03/08 05:48:18;;;;;;;18.10;12.70;;;3.90;99.90;;;;;;5036614;28;20714;-81
2024/03/08 05:50:48;;;;;;;18.77;14.10;;;3.80;99.90;;;;;;5039210;28;20856;-81
2024/03/08 05:53:16;;;;;;;20.02;13.45;;;3.90;99.90;;;;;;5039153;28;20444;-81
2024/03/08 05:55:44;;;;;;;20.10;14.40;;;4.00;99.90;;;;;;5036511;28;20289;-77
2024/03/08 05:58:12;;;;;;;17.00;12.80;;;4.00;99.90;;;;;;5035936;28;20492;-78
2024/03/08 06:00:40;;;;;;;19.17;14.17;;;3.90;99.90;;;;;;5034114;28;20864;-77
2024/03/08 06:03:09;;;;;;;19.33;14.15;;;3.90;99.90;;;;;;5038018;28;20972;-77
2024/03/08 06:05:37;;;;;;;17.00;12.95;;;3.90;99.90;;;;;;5040305;28;20223;-77
2024/03/08 06:08:07;;;;;;;17.40;12.85;;;3.90;99.90;;;;;;5039348;28;20217;-77
2024/03/08 06:10:35;;;;;;;15.85;12.80;;;3.90;99.90;;;;;;5040829;28;20194;-77
2024/03/08 06:13:04;;;;;;;15.68;12.40;;;4.00;99.90;;;;;;5038092;28;20193;-78
2024/03/08 06:15:32;;;;;;;15.63;11.13;;;4.00;99.90;;;;;;5038692;28;20209;-78
2024/03/08 06:18:00;;;;;;;17.92;13.82;;;4.00;99.90;;;;;;5039946;28;20247;-76
2024/03/08 06:20:28;;;;;;;16.77;13.48;;;4.00;99.90;;;;;;5032049;28;20283;-78
2024/03/08 06:22:57;;;;;;;21.33;15.30;;;4.10;99.90;;;;;;5037100;28;20209;-79
2024/03/08 06:25:26;;;;;;;19.98;14.32;;;4.10;99.90;;;;;;5037405;28;20469;-79
2024/03/08 06:27:54;;;;;;;15.38;12.10;;;4.10;99.90;;;;;;5035735;28;20213;-78
2024/03/08 06:30:23;;;;;;;16.88;12.90;;;4.20;99.90;;;;;;5036055;28;20198;-79
2024/03/08 06:32:51;;;;;;;16.60;12.50;;;4.20;99.90;;;;;;5034810;28;20209;-79
2024/03/08 06:35:20;;;;;;;23.70;14.50;;;4.20;99.90;;;;;;5036359;28;20511;-78
2024/03/08 06:37:48;;;;;;;18.77;13.47;;;4.30;99.90;;;;;;5036677;28;20483;-77
2024/03/08 06:40:16;;;;;;;17.70;13.13;;;4.40;99.90;;;;;;5036433;28;20459;-78
2024/03/08 06:42:46;;;;;;;20.70;13.75;;;4.40;99.90;;;;;;5041515;28;20448;-76
2024/03/08 06:45:19;;;;;;;16.77;13.03;;;4.40;99.90;;;;;;5042769;28;20197;-77
2024/03/08 06:47:47;;;;;;;22.30;14.80;;;4.50;99.90;;;;;;5037073;28;21001;-78
2024/03/08 06:50:16;;;;;;;17.60;13.17;;;4.50;99.90;;;;;;5040439;28;21011;-79
2024/03/08 06:52:47;;;;;;;21.17;14.03;;;4.60;99.90;;;;;;5043008;28;20496;-79
2024/03/08 06:55:17;;;;;;;20.83;13.70;;;4.60;99.90;;;;;;5042100;28;20999;-80
2024/03/08 06:57:46;;;;;;;17.30;13.13;;;4.70;99.90;;;;;;5043087;28;21000;-78
2024/03/08 07:00:18;;;;;;;17.77;13.63;;;4.60;99.90;;;;;;5041942;28;20453;-79
2024/03/08 07:02:48;;;;;;;15.63;12.63;;;4.40;99.90;;;;;;5042587;28;20452;-78
2024/03/08 07:05:17;;;;;;;20.23;13.70;;;4.50;99.90;;;;;;5044839;28;20517;-81
2024/03/08 07:07:45;;;;;;;20.77;13.77;;;4.30;99.90;;;;;;5042241;28;20463;-79
2024/03/08 07:10:15;;;;;;;21.20;14.27;;;4.50;99.90;;;;;;5042063;28;20206;-77
2024/03/08 07:12:43;;;;;;;20.70;14.63;;;4.30;99.90;;;;;;5042532;28;20450;-79
2024/03/08 07:15:14;;;;;;;19.40;13.50;;;4.40;99.90;;;;;;5041163;28;20448;-78
2024/03/08 07:17:44;;;;;;;15.60;12.90;;;4.50;99.90;;;;;;5036484;28;20475;-78
2024/03/08 07:20:15;;;;;;;18.90;13.90;;;4.30;99.90;;;;;;5039959;28;20477;-78
2024/03/08 07:22:43;;;;;;;20.17;14.50;;;4.40;99.90;;;;;;5041468;28;20460;-77
2024/03/08 07:25:20;;;;;;;18.30;13.27;;;4.20;99.90;;;;;;5041159;28;21172;-79
2024/03/08 07:27:49;;;;;;;20.77;14.03;;;4.30;99.90;;;;;;5040957;28;20998;-80
2024/03/08 07:33:02;;;;;;;18.63;13.87;;;4.70;99.90;;;;;;5039703;28;20558;-78
2024/03/08 07:35:31;;;;;;;20.83;13.80;;;4.80;99.90;;;;;;5039718;28;20436;-77
2024/03/08 07:37:59;;;;;;;18.27;13.40;;;4.70;99.90;;;;;;5039143;28;20483;-79
2024/03/08 07:40:28;;;;;;;18.63;14.10;;;4.70;99.90;;;;;;5039539;28;20522;-77
2024/03/08 07:42:56;;;;;;;15.43;12.07;;;4.80;99.90;;;;;;5040624;28;21001;-77
2024/03/08 07:45:30;;;;;;;17.60;13.70;;;4.90;99.90;;;;;;5044577;28;20494;-77
2024/03/08 07:47:58;;;;;;;15.07;12.20;;;5.10;99.90;;;;;;5037930;28;20586;-79
2024/03/08 07:50:26;;;;;;;16.30;12.30;;;5.10;99.90;;;;;;5037480;28;20469;-78
2024/03/08 07:52:55;;;;;;;19.50;13.07;;;4.70;99.90;;;;;;5044575;28;20451;-78
2024/03/08 07:55:24;;;;;;;17.37;13.27;;;4.70;99.90;;;;;;5040082;28;20457;-78
2024/03/08 07:57:52;;;;;;;17.57;12.13;;;4.90;99.90;;;;;;5040010;28;20567;-79
2024/03/08 08:00:21;;;;;;;16.70;12.90;;;4.80;99.90;;;;;;5041535;28;20974;-79
2024/03/08 08:02:51;;;;;;;17.53;13.60;;;4.90;99.90;;;;;;5036513;28;20454;-78
2024/03/08 08:05:19;;;;;;;16.57;11.97;;;4.90;99.90;;;;;;5038993;28;20522;-78
2024/03/08 08:07:47;;;;;;;19.97;13.97;;;4.50;99.90;;;;;;5040123;28;20566;-78
2024/03/08 08:10:21;;;;;;;18.43;12.60;;;4.60;99.90;;;;;;5042455;28;20512;-77
2024/03/08 08:12:50;;;;;;;17.03;11.93;;;4.50;99.90;;;;;;5038718;28;20452;-78
2024/03/08 08:15:18;;;;;;;15.47;12.47;;;4.70;99.90;;;;;;5039634;28;20444;-79
2024/03/08 08:17:47;;;;;;;17.10;12.57;;;4.50;99.90;;;;;;5040577;28;20854;-78
2024/03/08 08:20:18;;;;;;;14.23;12.00;;;4.40;99.90;;;;;;5039983;28;20457;-78
2024/03/08 08:22:48;;;;;;;17.60;13.03;;;4.40;99.90;;;;;;5040118;28;20459;-80
2024/03/08 08:25:20;;;;;;;17.13;13.63;;;4.30;99.90;;;;;;5041097;28;20849;-79
2024/03/08 08:27:48;;;;;;;18.70;13.20;;;4.30;99.90;;;;;;5037094;28;20575;-79
2024/03/08 08:30:17;;;;;;;18.13;13.20;;;4.30;99.90;;;;;;5040329;28;20543;-79
2024/03/08 08:32:46;;;;;;;16.27;13.13;;;4.40;99.90;;;;;;5040353;28;20505;-79
2024/03/08 08:35:18;;;;;;;20.50;14.00;;;4.60;99.90;;;;;;5042190;28;21048;-79
2024/03/08 08:37:46;;;;;;;15.37;11.83;;;4.80;99.90;;;;;;5039802;28;21136;-78
2024/03/08 08:40:17;;;;;;;16.50;12.27;;;4.80;99.90;;;;;;5038756;28;20454;-80
2024/03/08 08:42:46;;;;;;;17.40;12.80;;;4.70;99.90;;;;;;5043062;28;20965;-78
2024/03/08 08:45:17;;;;;;;19.80;13.83;;;5.00;99.90;;;;;;5039570;28;20461;-80
2024/03/08 08:47:52;;;;;;;14.93;11.70;;;4.80;99.90;;;;;;5038186;28;20463;-79
2024/03/08 08:50:23;;;;;;;17.17;14.67;;;4.80;99.90;;;;;;5038619;28;20453;-77
2024/03/08 08:52:52;;;;;;;16.50;12.50;;;4.70;99.90;;;;;;5038206;28;20841;-78
2024/03/08 08:55:24;;;;;;;16.40;12.00;;;4.90;99.90;;;;;;5041503;28;20567;-77
2024/03/08 08:57:53;;;;;;;16.83;12.00;;;4.90;99.90;;;;;;5041425;28;20483;-81
2024/03/08 09:00:26;;;;;;;14.40;11.30;;;4.80;99.90;;;;;;5039750;28;20453;-79
2024/03/08 09:02:57;;;;;;;16.50;12.70;;;5.00;99.90;;;;;;5039350;28;20965;-77
2024/03/08 09:05:27;;;;;;;15.50;11.43;;;5.20;99.90;;;;;;5038480;28;20878;-79
2024/03/08 09:07:56;;;;;;;16.97;12.00;;;5.30;99.90;;;;;;5037914;28;20944;-78
2024/03/08 09:10:24;;;;;;;18.50;12.80;;;5.10;99.90;;;;;;5040287;28;20456;-77
2024/03/08 09:12:59;;;;;;;16.77;13.37;;;5.00;99.90;;;;;;5039240;28;21226;-79
2024/03/08 09:15:28;;;;;;;15.53;11.50;;;5.00;99.90;;;;;;5039156;28;20428;-78
2024/03/08 09:17:57;;;;;;;15.80;12.03;;;5.20;99.90;;;;;;5038632;28;20467;-80
2024/03/08 09:20:27;;;;;;;15.10;11.50;;;5.30;99.90;;;;;;5041558;28;20981;-78
2024/03/08 09:22:55;;;;;;;18.40;13.47;;;5.00;99.90;;;;;;5037938;28;20459;-79
2024/03/08 09:25:23;;;;;;;16.20;11.87;;;5.20;99.90;;;;;;5037848;28;20697;-77
2024/03/08 09:27:51;;;;;;;15.43;12.50;;;5.30;99.90;;;;;;5038340;28;20479;-80
2024/03/08 09:30:21;;;;;;;13.40;10.67;;;4.70;99.90;;;;;;5038499;28;20531;-78
2024/03/08 09:32:50;;;;;;;17.00;11.00;;;4.50;99.90;;;;;;5036605;28;20935;-79
2024/03/08 09:35:20;;;;;;;18.03;11.73;;;4.30;99.90;;;;;;5037228;28;20507;-77
2024/03/08 09:37:51;;;;;;;16.60;12.27;;;4.50;99.90;;;;;;5041033;28;20471;-77
2024/03/08 09:40:20;;;;;;;17.20;11.50;;;4.70;99.90;;;;;;5040211;28;20481;-77
2024/03/08 09:42:49;;;;;;;15.90;11.90;;;5.00;99.90;;;;;;5039693;28;20487;-78
2024/03/08 09:45:22;;;;;;;15.63;10.77;;;5.10;99.90;;;;;;5040437;28;20972;-77
2024/03/08 09:47:50;;;;;;;12.03;10.30;;;4.90;99.90;;;;;;5035675;28;20468;-80
2024/03/08 09:50:18;;;;;;;18.63;12.27;;;4.60;99.90;;;;;;5036483;28;20448;-77
2024/03/08 09:52:50;;;;;;;17.20;11.50;;;5.00;99.90;;;;;;5040150;28;21014;-76
2024/03/08 09:55:21;;;;;;;11.67;10.57;;;5.00;99.90;;;;;;5038116;28;20435;-76
2024/03/08 10:00:37;;;;;;;14.20;11.70;;;5.20;99.90;;;;;;5033143;28;20473;-78
2024/03/08 10:03:06;;;;;;;14.83;11.53;;;5.50;99.90;;;;;;5039232;28;20455;-79
2024/03/08 10:05:34;;;;;;;12.90;11.00;;;5.50;99.90;;;;;;5038307;28;21027;-79
2024/03/08 10:08:04;;;;;;;14.03;11.40;;;5.60;99.90;;;;;;5038088;28;20486;-78
2024/03/08 10:10:34;;;;;;;15.20;11.40;;;5.60;99.90;;;;;;5037666;28;20821;-78
2024/03/08 10:13:03;;;;;;;16.07;11.73;;;5.40;99.90;;;;;;5037111;28;20444;-77
2024/03/08 10:15:32;;;;;;;14.80;11.93;;;5.40;99.90;;;;;;5039101;28;20537;-76
2024/03/08 10:18:02;;;;;;;17.83;11.70;;;5.60;99.90;;;;;;5036306;28;20469;-78
2024/03/08 10:20:33;;;;;;;15.20;12.23;;;5.40;99.90;;;;;;5037874;28;20516;-78
2024/03/08 10:23:03;;;;;;;13.57;11.40;;;5.50;99.90;;;;;;5039896;28;20521;-77
2024/03/08 10:25:40;;;;;;;16.20;12.17;;;5.70;99.90;;;;;;5038366;28;20820;-77
2024/03/08 10:28:08;;;;;;;17.23;12.03;;;5.70;99.90;;;;;;5035311;28;20854;-77
2024/03/08 10:30:37;;;;;;;15.50;12.30;;;5.90;99.90;;;;;;5037957;28;21746;-78
2024/03/08 10:33:06;;;;;;;13.60;10.70;;;5.80;99.90;;;;;;5039036;28;20458;-79
2024/03/08 10:35:35;;;;;;;18.67;12.33;;;5.50;99.90;;;;;;5035887;28;20458;-78
2024/03/08 10:38:07;;;;;;;16.33;11.83;;;5.30;99.90;;;;;;5037892;28;20477;-77
2024/03/08 10:40:39;;;;;;;16.50;12.00;;;5.60;99.90;;;;;;5036570;28;20895;-78
2024/03/08 10:43:16;;;;;;;13.60;11.90;;;5.50;99.90;;;;;;5037290;28;20460;-77
2024/03/08 10:45:48;;;;;;;15.73;12.23;;;5.50;99.90;;;;;;5038730;28;20467;-78
2024/03/08 10:48:31;;;;;;;17.60;11.93;;;5.40;99.90;;;;;;5037330;28;20850;-78
2024/03/08 10:51:05;;;;;;;16.07;12.73;;;5.10;99.90;;;;;;5032992;28;21048;-79
2024/03/08 10:53:36;;;;;;;14.37;11.17;;;5.20;99.90;;;;;;5037165;28;20447;-80
2024/03/08 10:56:07;;;;;;;19.60;11.80;;;5.50;99.90;;;;;;5036751;28;20907;-79
2024/03/08 10:58:38;;;;;;;15.50;11.50;;;5.70;99.90;;;;;;5037451;28;20468;-80
2024/03/08 11:01:07;;;;;;;17.73;12.98;;;5.50;99.90;;;;;;5038862;28;20456;-80
2024/03/08 11:03:53;;;;;;;16.93;11.17;;;5.70;99.90;;;;;;5052886;28;20202;-80
2024/03/08 11:06:30;;;;;;;13.63;11.50;;;5.70;99.90;;;;;;5050161;28;20471;-80
2024/03/08 11:08:58;;;;;;;13.90;11.30;;;5.90;99.90;;;;;;5038882;28;20645;-80
2024/03/08 11:11:30;;;;;;;13.93;11.93;;;6.20;99.90;;;;;;5038432;28;20865;-79
2024/03/08 11:14:04;;;;;;;14.00;11.27;;;6.00;99.90;;;;;;5036207;28;20830;-80
2024/03/08 11:16:43;;;;;;;14.90;12.37;;;6.00;99.90;;;;;;5038530;28;20491;-79
2024/03/08 11:19:31;;;;;;;15.00;11.33;;;5.70;99.90;;;;;;5031845;28;21197;-79
2024/03/08 11:22:01;;;;;;;14.53;11.93;;;6.40;99.90;;;;;;5035259;28;21238;-80
2024/03/08 11:24:37;;;;;;;15.23;11.00;;;6.50;99.90;;;;;;5029867;28;20457;-80
2024/03/08 11:27:06;;;;;;;15.83;11.07;;;7.60;99.90;;;;;;5034785;28;21307;-82
2024/03/08 11:29:39;;;;;;;15.97;11.90;;;7.50;99.90;;;;;;5032479;28;20447;-81
2024/03/08 11:32:12;;;;;;;14.37;10.67;;;7.30;99.90;;;;;;5032087;28;20455;-80
2024/03/08 11:34:43;;;;;;;14.73;11.40;;;7.20;99.90;;;;;;5034849;28;20457;-80
2024/03/08 11:37:14;;;;;;;12.33;11.13;;;8.80;99.90;;;;;;5034564;28;20470;-79
2024/03/08 11:39:49;;;;;;;13.17;10.43;;;10.40;99.90;;;;;;5041558;28;20476;-80
2024/03/08 11:42:18;;;;;;;14.57;11.33;;;9.70;99.90;;;;;;5040000;28;20460;-80
2024/03/08 11:44:47;;;;;;;15.37;11.70;;;9.30;99.90;;;;;;5038648;28;20467;-79
2024/03/08 11:47:17;;;;;;;15.63;11.97;;;9.10;99.90;;;;;;5027338;28;21318;-80
2024/03/08 11:49:47;;;;;;;13.50;10.97;;;9.00;99.90;;;;;;5038043;28;20530;-80
2024/03/08 11:52:16;;;;;;;13.13;10.73;;;8.80;99.90;;;;;;5037126;28;20502;-78
2024/03/08 11:54:53;;;;;;;14.30;11.97;;;8.80;99.90;;;;;;5041074;28;20989;-80
2024/03/08 11:57:23;;;;;;;13.80;10.40;;;8.90;99.90;;;;;;5037636;28;20510;-79
2024/03/08 11:59:53;;;;;;;16.27;11.77;;;8.70;99.90;;;;;;5041175;28;20526;-80
2024/03/08 12:02:24;;;;;;;12.50;9.97;;;8.70;99.90;;;;;;5036839;28;20451;-78
2024/03/08 12:04:59;;;;;;;14.47;11.23;;;8.80;99.90;;;;;;5036560;28;20624;-81
2024/03/08 12:07:28;;;;;;;13.23;10.60;;;8.80;99.90;;;;;;5032994;28;20475;-79
2024/03/08 12:10:17;;;;;;;14.77;11.57;;;8.90;99.90;;;;;;5040169;28;20451;-79
2024/03/08 12:12:47;;;;;;;14.60;10.20;;;9.20;99.90;;;;;;5036220;28;20539;-79
2024/03/08 12:15:18;;;;;;;14.60;11.50;;;9.30;99.90;;;;;;5037768;28;20470;-81
2024/03/08 12:17:49;;;;;;;14.67;11.60;;;9.40;99.90;;;;;;5039602;28;20466;-78
2024/03/08 12:20:21;;;;;;;16.20;11.83;;;9.50;99.90;;;;;;5039721;28;20494;-77
2024/03/08 12:22:52;;;;;;;12.97;10.83;;;9.60;99.90;;;;;;5037325;28;20448;-80
2024/03/08 12:25:21;;;;;;;15.30;10.83;;;9.70;99.90;;;;;;5039673;28;20451;-82
2024/03/08 12:27:52;;;;;;;12.53;10.97;;;9.50;99.90;;;;;;5036376;28;20484;-79
2024/03/08 12:30:26;;;;;;;13.90;12.40;;;9.50;99.90;;;;;;5040346;28;20440;-80
2024/03/08 12:32:57;;;;;;;12.63;10.20;;;9.80;99.90;;;;;;5037121;28;21453;-79
2024/03/08 12:35:27;;;;;;;13.03;11.13;;;9.20;99.90;;;;;;5039403;28;20470;-79
2024/03/08 12:37:57;;;;;;;12.67;11.20;;;9.20;99.90;;;;;;5038444;28;20480;-80
2024/03/08 12:40:31;;;;;;;14.73;11.60;;;9.20;99.90;;;;;;5039379;28;20464;-78
2024/03/08 12:43:00;;;;;;;13.53;11.37;;;9.30;99.90;;;;;;5035493;28;20478;-80
2024/03/08 12:45:29;;;;;;;14.77;11.47;;;9.40;99.90;;;;;;5038240;28;20460;-79
2024/03/08 12:47:58;;;;;;;14.30;11.50;;;9.50;99.90;;;;;;5037897;28;20568;-79
2024/03/08 12:50:27;;;;;;;13.13;11.60;;;9.40;99.90;;;;;;5040366;28;21236;-80
2024/03/08 12:52:55;;;;;;;15.37;11.33;;;9.40;99.90;;;;;;5036571;28;20502;-79